Aviation Digital Data Service (ADDS)

Output produced by METARs form (1141 UTC 27 May 2017)
found at http://www.aviationweather.gov/adds/metars/
 
LMML 271115Z 24007KT 190V270 9999 SCT042 23/11 Q1018 NOSIG
TAF LMML 271100Z 2712/2812 VRB05KT 9999 FEW025 
     PROB30 2700/2705 7000